Yellow Mule RAWS (NWS)

Jump to table bottom
Date/Time Wind Direction Wind Speed knots Wind Gust knots RH % Accumulated Precip Inches Air Temp Fahrenheit
2023-02-08 18:04 NW 14 24 82 0.2 9
2023-02-08 17:04 NW 14 21 82 0.2 9
2023-02-08 16:04 WNW 11 21 77 0.2 10
2023-02-08 15:04 W 10 20 77 0.2 11
2023-02-08 14:04 WSW 12 23 73 0.2 11
2023-02-08 13:04 WSW 14 23 68 0.2 12
2023-02-08 12:04 WSW 17 23 68 0.2 11
2023-02-08 11:04 WSW 13 25 72 0.2 12
2023-02-08 10:04 SW 22 30 78 0.2 10
2023-02-08 09:04 W 15 23 83 0.2 9
2023-02-08 08:04 WSW 13 25 85 0.2 11
2023-02-08 07:04 SSW 13 23 89 0.2 15
2023-02-08 06:04 SSW 10 30 71 0.2 16
2023-02-08 05:04 SSW 21 36 74 0.2 16
2023-02-08 04:04 SSW 21 35 79 0.2 17
2023-02-08 03:04 SSW 21 30 80 0.19 18
2023-02-08 02:04 SSW 22 29 83 0.19 18
2023-02-08 01:04 SSW 16 23 91 0.19 17
2023-02-08 00:04 S 12 23 91 0.19 18
2023-02-07 23:04 S 8 16 90 0.19 15
2023-02-07 22:04 S 7 15 90 0.19 14
2023-02-07 21:04 SSE 8 10 90 0.19 14
2023-02-07 20:04 S 5 9 91 0.19 14
2023-02-07 19:04 S 8 11 92 0.19 15
2023-02-07 18:04 S 9 17 92 0.19 16
2023-02-07 17:04 S 10 17 80 0.19 19
2023-02-07 16:04 S 10 16 62 0.19 25
2023-02-07 15:04 S 9 22 58 0.19 27
2023-02-07 14:04 SSW 11 23 58 0.19 27
2023-02-07 13:04 SW 13 20 58 0.19 26
2023-02-07 12:04 SSW 13 22 63 0.19 24
2023-02-07 11:04 SSW 14 19 68 0.19 22
2023-02-07 10:04 SSW 11 17 76 0.19 20
2023-02-07 09:04 SW 12 16 81 0.19 18
2023-02-07 08:04 SSW 10 16 88 0.19 16
2023-02-07 07:04 SSW 11 17 90 0.19 16
2023-02-07 06:04 SSW 10 17 90 0.19 17
2023-02-07 05:04 SSW 9 16 91 0.19 16
2023-02-07 04:04 SSW 11 17 90 0.19 16
2023-02-07 03:04 SSW 12 19 90 0.19 16
2023-02-07 02:04 SW 12 20 90 0.19 15
2023-02-07 01:04 SSW 16 21 90 0.19 15
2023-02-07 00:04 SSW 12 17 91 0.19 15
2023-02-06 23:04 SSW 9 17 91 0.19 15
2023-02-06 22:04 SW 13 20 90 0.19 15
2023-02-06 21:04 SW 12 21 90 0.19 15
2023-02-06 20:04 SW 10 18 89 0.19 15
2023-02-06 19:04 SW 13 18 89 0.19 16
2023-02-06 18:04 WSW 11 20 88 0.19 16